sensor_id;sensor_type;location;lat;lon;timestamp;P1;durP1;ratioP1;P2;durP2;ratioP2
4742;SDS011;24293;48.154;7.748;2023-05-29T00:01:41;9.90;;;5.10;;
4742;SDS011;24293;48.154;7.748;2023-05-29T00:04:08;11.67;;;6.27;;
4742;SDS011;24293;48.154;7.748;2023-05-29T00:06:35;13.23;;;6.50;;
4742;SDS011;24293;48.154;7.748;2023-05-29T00:09:02;10.63;;;5.60;;
4742;SDS011;24293;48.154;7.748;2023-05-29T00:11:29;12.17;;;5.43;;
4742;SDS011;24293;48.154;7.748;2023-05-29T00:13:57;11.13;;;5.40;;
4742;SDS011;24293;48.154;7.748;2023-05-29T00:16:23;11.50;;;5.77;;
4742;SDS011;24293;48.154;7.748;2023-05-29T00:18:49;16.40;;;5.87;;
4742;SDS011;24293;48.154;7.748;2023-05-29T00:21:17;9.37;;;5.50;;
4742;SDS011;24293;48.154;7.748;2023-05-29T00:23:43;12.10;;;5.40;;
4742;SDS011;24293;48.154;7.748;2023-05-29T00:26:10;10.30;;;5.67;;
4742;SDS011;24293;48.154;7.748;2023-05-29T00:28:37;11.40;;;5.57;;
4742;SDS011;24293;48.154;7.748;2023-05-29T00:31:05;11.20;;;5.50;;
4742;SDS011;24293;48.154;7.748;2023-05-29T00:33:31;11.47;;;5.47;;
4742;SDS011;24293;48.154;7.748;2023-05-29T00:35:58;12.73;;;5.80;;
4742;SDS011;24293;48.154;7.748;2023-05-29T00:38:24;10.37;;;5.43;;
4742;SDS011;24293;48.154;7.748;2023-05-29T00:40:51;9.23;;;4.97;;
4742;SDS011;24293;48.154;7.748;2023-05-29T00:43:17;13.53;;;5.33;;
4742;SDS011;24293;48.154;7.748;2023-05-29T00:45:43;11.03;;;5.33;;
4742;SDS011;24293;48.154;7.748;2023-05-29T00:48:11;12.00;;;5.87;;
4742;SDS011;24293;48.154;7.748;2023-05-29T00:50:38;14.17;;;6.63;;
4742;SDS011;24293;48.154;7.748;2023-05-29T00:53:05;10.87;;;5.37;;
4742;SDS011;24293;48.154;7.748;2023-05-29T00:55:33;12.87;;;5.20;;
4742;SDS011;24293;48.154;7.748;2023-05-29T00:57:59;12.30;;;6.27;;
4742;SDS011;24293;48.154;7.748;2023-05-29T01:00:26;13.87;;;5.87;;
4742;SDS011;24293;48.154;7.748;2023-05-29T01:02:52;10.10;;;5.40;;
4742;SDS011;24293;48.154;7.748;2023-05-29T01:05:20;10.47;;;5.57;;
4742;SDS011;24293;48.154;7.748;2023-05-29T01:07:47;14.23;;;5.87;;
4742;SDS011;24293;48.154;7.748;2023-05-29T01:10:14;15.10;;;5.50;;
4742;SDS011;24293;48.154;7.748;2023-05-29T01:12:43;11.60;;;6.13;;
4742;SDS011;24293;48.154;7.748;2023-05-29T01:15:21;10.63;;;5.40;;
4742;SDS011;24293;48.154;7.748;2023-05-29T01:18:01;12.57;;;5.67;;
4742;SDS011;24293;48.154;7.748;2023-05-29T01:20:35;15.07;;;6.50;;
4742;SDS011;24293;48.154;7.748;2023-05-29T01:23:08;12.37;;;6.10;;
4742;SDS011;24293;48.154;7.748;2023-05-29T01:25:45;12.47;;;6.10;;
4742;SDS011;24293;48.154;7.748;2023-05-29T01:28:15;14.83;;;5.80;;
4742;SDS011;24293;48.154;7.748;2023-05-29T01:30:44;12.90;;;5.70;;
4742;SDS011;24293;48.154;7.748;2023-05-29T01:33:11;13.33;;;5.10;;
4742;SDS011;24293;48.154;7.748;2023-05-29T01:35:38;11.50;;;5.33;;
4742;SDS011;24293;48.154;7.748;2023-05-29T01:38:05;13.07;;;5.80;;
4742;SDS011;24293;48.154;7.748;2023-05-29T01:40:31;16.50;;;6.37;;
4742;SDS011;24293;48.154;7.748;2023-05-29T01:42:57;13.63;;;6.23;;
4742;SDS011;24293;48.154;7.748;2023-05-29T01:45:25;14.40;;;6.90;;
4742;SDS011;24293;48.154;7.748;2023-05-29T01:47:52;11.23;;;5.40;;
4742;SDS011;24293;48.154;7.748;2023-05-29T01:50:19;11.93;;;5.53;;
4742;SDS011;24293;48.154;7.748;2023-05-29T01:52:46;13.93;;;6.10;;
4742;SDS011;24293;48.154;7.748;2023-05-29T01:55:13;13.33;;;5.60;;
4742;SDS011;24293;48.154;7.748;2023-05-29T01:57:39;13.07;;;5.80;;
4742;SDS011;24293;48.154;7.748;2023-05-29T02:00:07;11.60;;;6.33;;
4742;SDS011;24293;48.154;7.748;2023-05-29T02:02:37;10.80;;;5.83;;
4742;SDS011;24293;48.154;7.748;2023-05-29T02:05:04;10.43;;;5.20;;
4742;SDS011;24293;48.154;7.748;2023-05-29T02:07:31;10.83;;;5.00;;
4742;SDS011;24293;48.154;7.748;2023-05-29T02:09:58;14.10;;;5.90;;
4742;SDS011;24293;48.154;7.748;2023-05-29T02:12:24;12.63;;;5.70;;
4742;SDS011;24293;48.154;7.748;2023-05-29T02:14:51;13.07;;;5.90;;
4742;SDS011;24293;48.154;7.748;2023-05-29T02:17:17;9.70;;;5.73;;
4742;SDS011;24293;48.154;7.748;2023-05-29T02:19:48;15.83;;;5.90;;
4742;SDS011;24293;48.154;7.748;2023-05-29T02:22:15;13.27;;;5.30;;
4742;SDS011;24293;48.154;7.748;2023-05-29T02:24:42;11.23;;;5.50;;
4742;SDS011;24293;48.154;7.748;2023-05-29T02:27:08;14.40;;;6.90;;
4742;SDS011;24293;48.154;7.748;2023-05-29T02:29:35;9.97;;;6.63;;
4742;SDS011;24293;48.154;7.748;2023-05-29T02:32:02;10.57;;;5.50;;
4742;SDS011;24293;48.154;7.748;2023-05-29T02:34:29;11.97;;;5.17;;
4742;SDS011;24293;48.154;7.748;2023-05-29T02:36:57;11.63;;;6.33;;
4742;SDS011;24293;48.154;7.748;2023-05-29T02:39:24;12.13;;;5.93;;
4742;SDS011;24293;48.154;7.748;2023-05-29T02:41:50;15.43;;;6.10;;
4742;SDS011;24293;48.154;7.748;2023-05-29T02:44:17;18.27;;;6.43;;
4742;SDS011;24293;48.154;7.748;2023-05-29T02:46:43;11.77;;;5.90;;
4742;SDS011;24293;48.154;7.748;2023-05-29T02:49:10;15.00;;;6.47;;
4742;SDS011;24293;48.154;7.748;2023-05-29T02:51:36;13.40;;;6.03;;
4742;SDS011;24293;48.154;7.748;2023-05-29T02:54:04;13.80;;;6.73;;
4742;SDS011;24293;48.154;7.748;2023-05-29T02:56:31;13.10;;;6.40;;
4742;SDS011;24293;48.154;7.748;2023-05-29T02:58:58;11.07;;;6.30;;
4742;SDS011;24293;48.154;7.748;2023-05-29T03:01:25;14.33;;;6.47;;
4742;SDS011;24293;48.154;7.748;2023-05-29T03:03:51;13.70;;;6.13;;
4742;SDS011;24293;48.154;7.748;2023-05-29T03:06:18;10.93;;;6.07;;
4742;SDS011;24293;48.154;7.748;2023-05-29T03:08:45;13.83;;;7.20;;
4742;SDS011;24293;48.154;7.748;2023-05-29T03:11:13;14.53;;;6.10;;
4742;SDS011;24293;48.154;7.748;2023-05-29T03:13:40;13.87;;;6.70;;
4742;SDS011;24293;48.154;7.748;2023-05-29T03:16:07;16.20;;;6.23;;
4742;SDS011;24293;48.154;7.748;2023-05-29T03:18:33;12.03;;;5.90;;
4742;SDS011;24293;48.154;7.748;2023-05-29T03:21:00;14.30;;;6.10;;
4742;SDS011;24293;48.154;7.748;2023-05-29T03:23:26;14.60;;;6.20;;
4742;SDS011;24293;48.154;7.748;2023-05-29T03:25:53;13.00;;;5.50;;
4742;SDS011;24293;48.154;7.748;2023-05-29T03:28:21;12.97;;;6.07;;
4742;SDS011;24293;48.154;7.748;2023-05-29T03:30:47;12.23;;;6.70;;
4742;SDS011;24293;48.154;7.748;2023-05-29T03:33:14;18.73;;;7.17;;
4742;SDS011;24293;48.154;7.748;2023-05-29T03:35:40;11.47;;;6.90;;
4742;SDS011;24293;48.154;7.748;2023-05-29T03:38:07;12.83;;;6.70;;
4742;SDS011;24293;48.154;7.748;2023-05-29T03:40:33;10.87;;;5.93;;
4742;SDS011;24293;48.154;7.748;2023-05-29T03:43:00;12.73;;;5.83;;
4742;SDS011;24293;48.154;7.748;2023-05-29T03:45:28;16.10;;;5.80;;
4742;SDS011;24293;48.154;7.748;2023-05-29T03:47:54;13.30;;;5.87;;
4742;SDS011;24293;48.154;7.748;2023-05-29T03:50:21;17.13;;;7.13;;
4742;SDS011;24293;48.154;7.748;2023-05-29T03:52:47;10.23;;;5.50;;
4742;SDS011;24293;48.154;7.748;2023-05-29T03:55:14;11.40;;;7.17;;
4742;SDS011;24293;48.154;7.748;2023-05-29T03:57:40;12.70;;;6.50;;
4742;SDS011;24293;48.154;7.748;2023-05-29T04:00:07;16.07;;;7.33;;
4742;SDS011;24293;48.154;7.748;2023-05-29T04:02:38;23.80;;;7.50;;
4742;SDS011;24293;48.154;7.748;2023-05-29T04:05:04;12.80;;;7.20;;
4742;SDS011;24293;48.154;7.748;2023-05-29T04:07:31;14.70;;;6.40;;
4742;SDS011;24293;48.154;7.748;2023-05-29T04:09:58;14.10;;;6.90;;
4742;SDS011;24293;48.154;7.748;2023-05-29T04:12:24;21.77;;;7.47;;
4742;SDS011;24293;48.154;7.748;2023-05-29T04:14:50;12.80;;;7.10;;
4742;SDS011;24293;48.154;7.748;2023-05-29T04:17:17;15.70;;;7.07;;
4742;SDS011;24293;48.154;7.748;2023-05-29T04:19:45;11.70;;;6.77;;
4742;SDS011;24293;48.154;7.748;2023-05-29T04:22:11;14.53;;;6.97;;
4742;SDS011;24293;48.154;7.748;2023-05-29T04:24:38;14.50;;;7.97;;
4742;SDS011;24293;48.154;7.748;2023-05-29T04:27:04;13.37;;;7.30;;
4742;SDS011;24293;48.154;7.748;2023-05-29T04:29:31;16.80;;;7.43;;
4742;SDS011;24293;48.154;7.748;2023-05-29T04:31:59;17.13;;;7.80;;
4742;SDS011;24293;48.154;7.748;2023-05-29T04:34:28;16.17;;;7.83;;
4742;SDS011;24293;48.154;7.748;2023-05-29T04:36:56;18.60;;;7.97;;
4742;SDS011;24293;48.154;7.748;2023-05-29T04:39:23;18.47;;;7.53;;
4742;SDS011;24293;48.154;7.748;2023-05-29T04:41:50;11.70;;;6.70;;
4742;SDS011;24293;48.154;7.748;2023-05-29T04:44:16;13.67;;;6.97;;
4742;SDS011;24293;48.154;7.748;2023-05-29T04:46:43;20.60;;;7.67;;
4742;SDS011;24293;48.154;7.748;2023-05-29T04:49:09;14.17;;;7.50;;
4742;SDS011;24293;48.154;7.748;2023-05-29T04:51:36;12.50;;;6.90;;
4742;SDS011;24293;48.154;7.748;2023-05-29T04:54:07;12.10;;;6.73;;
4742;SDS011;24293;48.154;7.748;2023-05-29T04:56:34;12.60;;;7.30;;
4742;SDS011;24293;48.154;7.748;2023-05-29T04:59:00;14.30;;;7.63;;
4742;SDS011;24293;48.154;7.748;2023-05-29T05:01:27;14.10;;;6.63;;
4742;SDS011;24293;48.154;7.748;2023-05-29T05:03:53;16.37;;;7.50;;
4742;SDS011;24293;48.154;7.748;2023-05-29T05:06:21;16.63;;;7.00;;
4742;SDS011;24293;48.154;7.748;2023-05-29T05:08:47;15.27;;;7.40;;
4742;SDS011;24293;48.154;7.748;2023-05-29T05:11:15;13.43;;;7.20;;
4742;SDS011;24293;48.154;7.748;2023-05-29T05:13:41;16.67;;;7.60;;
4742;SDS011;24293;48.154;7.748;2023-05-29T05:16:08;15.90;;;7.03;;
4742;SDS011;24293;48.154;7.748;2023-05-29T05:18:35;12.03;;;7.37;;
4742;SDS011;24293;48.154;7.748;2023-05-29T05:21:01;13.30;;;7.83;;
4742;SDS011;24293;48.154;7.748;2023-05-29T05:23:29;17.00;;;7.60;;
4742;SDS011;24293;48.154;7.748;2023-05-29T05:25:55;13.87;;;6.80;;
4742;SDS011;24293;48.154;7.748;2023-05-29T05:28:23;14.83;;;7.27;;
4742;SDS011;24293;48.154;7.748;2023-05-29T05:30:50;15.43;;;6.70;;
4742;SDS011;24293;48.154;7.748;2023-05-29T05:33:17;16.07;;;7.53;;
4742;SDS011;24293;48.154;7.748;2023-05-29T05:35:43;12.43;;;6.43;;
4742;SDS011;24293;48.154;7.748;2023-05-29T05:38:10;14.80;;;6.53;;
4742;SDS011;24293;48.154;7.748;2023-05-29T05:40:37;11.80;;;6.77;;
4742;SDS011;24293;48.154;7.748;2023-05-29T05:43:04;17.17;;;6.83;;
4742;SDS011;24293;48.154;7.748;2023-05-29T05:45:32;10.97;;;6.73;;
4742;SDS011;24293;48.154;7.748;2023-05-29T05:47:59;15.07;;;7.30;;
4742;SDS011;24293;48.154;7.748;2023-05-29T05:50:26;12.87;;;7.07;;
4742;SDS011;24293;48.154;7.748;2023-05-29T05:52:53;11.23;;;6.37;;
4742;SDS011;24293;48.154;7.748;2023-05-29T05:55:19;22.37;;;7.17;;
4742;SDS011;24293;48.154;7.748;2023-05-29T05:57:46;12.90;;;7.00;;
4742;SDS011;24293;48.154;7.748;2023-05-29T06:00:12;16.70;;;6.87;;
4742;SDS011;24293;48.154;7.748;2023-05-29T06:02:40;15.27;;;7.23;;
4742;SDS011;24293;48.154;7.748;2023-05-29T06:05:08;13.57;;;7.07;;
4742;SDS011;24293;48.154;7.748;2023-05-29T06:07:34;15.97;;;6.93;;
4742;SDS011;24293;48.154;7.748;2023-05-29T06:10:01;16.07;;;7.00;;
4742;SDS011;24293;48.154;7.748;2023-05-29T06:12:28;13.10;;;6.80;;
4742;SDS011;24293;48.154;7.748;2023-05-29T06:14:54;15.70;;;7.27;;
4742;SDS011;24293;48.154;7.748;2023-05-29T06:17:21;16.53;;;7.00;;
4742;SDS011;24293;48.154;7.748;2023-05-29T06:19:49;15.97;;;5.87;;
4742;SDS011;24293;48.154;7.748;2023-05-29T06:22:15;14.77;;;6.40;;
4742;SDS011;24293;48.154;7.748;2023-05-29T06:24:42;12.10;;;5.80;;
4742;SDS011;24293;48.154;7.748;2023-05-29T06:27:09;16.20;;;7.00;;
4742;SDS011;24293;48.154;7.748;2023-05-29T06:29:35;12.50;;;6.17;;
4742;SDS011;24293;48.154;7.748;2023-05-29T06:32:02;9.07;;;5.43;;
4742;SDS011;24293;48.154;7.748;2023-05-29T06:34:28;11.83;;;5.50;;
4742;SDS011;24293;48.154;7.748;2023-05-29T06:36:56;13.33;;;5.87;;
4742;SDS011;24293;48.154;7.748;2023-05-29T06:39:22;11.30;;;6.37;;
4742;SDS011;24293;48.154;7.748;2023-05-29T06:41:49;17.70;;;6.50;;
4742;SDS011;24293;48.154;7.748;2023-05-29T06:44:15;9.97;;;4.87;;
4742;SDS011;24293;48.154;7.748;2023-05-29T06:46:42;11.40;;;5.07;;
4742;SDS011;24293;48.154;7.748;2023-05-29T06:49:08;11.30;;;5.70;;
4742;SDS011;24293;48.154;7.748;2023-05-29T06:51:35;8.47;;;5.20;;
4742;SDS011;24293;48.154;7.748;2023-05-29T06:54:03;12.20;;;5.63;;
4742;SDS011;24293;48.154;7.748;2023-05-29T06:56:29;14.00;;;4.80;;
4742;SDS011;24293;48.154;7.748;2023-05-29T06:58:56;9.80;;;5.17;;
4742;SDS011;24293;48.154;7.748;2023-05-29T07:01:23;8.17;;;5.13;;
4742;SDS011;24293;48.154;7.748;2023-05-29T07:03:51;14.00;;;6.00;;
4742;SDS011;24293;48.154;7.748;2023-05-29T07:06:21;10.33;;;4.83;;
4742;SDS011;24293;48.154;7.748;2023-05-29T07:08:47;10.53;;;5.33;;
4742;SDS011;24293;48.154;7.748;2023-05-29T07:11:15;9.07;;;5.10;;
4742;SDS011;24293;48.154;7.748;2023-05-29T07:13:41;9.27;;;5.17;;
4742;SDS011;24293;48.154;7.748;2023-05-29T07:16:08;10.40;;;5.37;;
4742;SDS011;24293;48.154;7.748;2023-05-29T07:18:34;12.37;;;6.23;;
4742;SDS011;24293;48.154;7.748;2023-05-29T07:21:01;9.77;;;5.60;;
4742;SDS011;24293;48.154;7.748;2023-05-29T07:23:27;10.20;;;5.23;;
4742;SDS011;24293;48.154;7.748;2023-05-29T07:25:54;10.53;;;5.20;;
4742;SDS011;24293;48.154;7.748;2023-05-29T07:28:22;13.27;;;5.50;;
4742;SDS011;24293;48.154;7.748;2023-05-29T07:30:48;12.73;;;5.57;;
4742;SDS011;24293;48.154;7.748;2023-05-29T07:33:15;15.73;;;4.97;;
4742;SDS011;24293;48.154;7.748;2023-05-29T07:35:41;7.33;;;4.40;;
4742;SDS011;24293;48.154;7.748;2023-05-29T07:38:08;10.60;;;4.80;;
4742;SDS011;24293;48.154;7.748;2023-05-29T07:40:34;11.97;;;5.10;;
4742;SDS011;24293;48.154;7.748;2023-05-29T07:43:00;8.40;;;4.97;;
4742;SDS011;24293;48.154;7.748;2023-05-29T07:45:28;9.83;;;5.03;;
4742;SDS011;24293;48.154;7.748;2023-05-29T07:47:55;10.77;;;5.07;;
4742;SDS011;24293;48.154;7.748;2023-05-29T07:50:21;8.17;;;4.50;;
4742;SDS011;24293;48.154;7.748;2023-05-29T07:52:48;8.93;;;5.27;;
4742;SDS011;24293;48.154;7.748;2023-05-29T07:55:14;8.67;;;4.73;;
4742;SDS011;24293;48.154;7.748;2023-05-29T07:57:41;9.77;;;5.00;;
4742;SDS011;24293;48.154;7.748;2023-05-29T08:00:08;12.07;;;5.30;;
4742;SDS011;24293;48.154;7.748;2023-05-29T08:02:39;9.87;;;5.00;;
4742;SDS011;24293;48.154;7.748;2023-05-29T08:05:07;10.67;;;5.47;;
4742;SDS011;24293;48.154;7.748;2023-05-29T08:07:34;9.47;;;5.27;;
4742;SDS011;24293;48.154;7.748;2023-05-29T08:10:00;11.27;;;6.30;;
4742;SDS011;24293;48.154;7.748;2023-05-29T08:12:27;10.10;;;4.50;;
4742;SDS011;24293;48.154;7.748;2023-05-29T08:14:53;10.63;;;5.60;;
4742;SDS011;24293;48.154;7.748;2023-05-29T08:17:20;8.73;;;5.23;;
4742;SDS011;24293;48.154;7.748;2023-05-29T08:19:48;8.50;;;4.63;;
4742;SDS011;24293;48.154;7.748;2023-05-29T08:22:14;12.73;;;4.80;;
4742;SDS011;24293;48.154;7.748;2023-05-29T08:24:41;10.93;;;5.33;;
4742;SDS011;24293;48.154;7.748;2023-05-29T08:27:08;10.80;;;4.90;;
4742;SDS011;24293;48.154;7.748;2023-05-29T08:29:34;8.27;;;4.93;;
4742;SDS011;24293;48.154;7.748;2023-05-29T08:32:02;11.37;;;4.27;;
4742;SDS011;24293;48.154;7.748;2023-05-29T08:34:28;11.70;;;4.93;;
4742;SDS011;24293;48.154;7.748;2023-05-29T08:36:57;9.40;;;4.70;;
4742;SDS011;24293;48.154;7.748;2023-05-29T08:39:23;9.03;;;5.27;;
4742;SDS011;24293;48.154;7.748;2023-05-29T08:41:51;13.37;;;4.73;;
4742;SDS011;24293;48.154;7.748;2023-05-29T08:44:21;10.47;;;5.37;;
4742;SDS011;24293;48.154;7.748;2023-05-29T08:46:48;11.77;;;4.70;;
4742;SDS011;24293;48.154;7.748;2023-05-29T08:49:16;8.80;;;4.90;;
4742;SDS011;24293;48.154;7.748;2023-05-29T08:51:43;9.87;;;4.40;;
4742;SDS011;24293;48.154;7.748;2023-05-29T08:54:14;8.07;;;4.57;;
4742;SDS011;24293;48.154;7.748;2023-05-29T08:56:41;8.17;;;4.20;;
4742;SDS011;24293;48.154;7.748;2023-05-29T08:59:07;7.00;;;4.07;;
4742;SDS011;24293;48.154;7.748;2023-05-29T09:01:34;9.83;;;4.80;;
4742;SDS011;24293;48.154;7.748;2023-05-29T09:04:01;9.13;;;4.73;;
4742;SDS011;24293;48.154;7.748;2023-05-29T09:06:28;7.23;;;4.10;;
4742;SDS011;24293;48.154;7.748;2023-05-29T09:08:55;7.77;;;4.33;;
4742;SDS011;24293;48.154;7.748;2023-05-29T09:11:24;8.70;;;4.13;;
4742;SDS011;24293;48.154;7.748;2023-05-29T09:13:51;8.33;;;4.60;;
4742;SDS011;24293;48.154;7.748;2023-05-29T09:16:18;8.67;;;4.60;;
4742;SDS011;24293;48.154;7.748;2023-05-29T09:18:45;11.00;;;3.83;;
4742;SDS011;24293;48.154;7.748;2023-05-29T09:21:16;8.37;;;4.50;;
4742;SDS011;24293;48.154;7.748;2023-05-29T09:23:51;8.27;;;4.40;;
4742;SDS011;24293;48.154;7.748;2023-05-29T09:26:18;13.10;;;4.90;;
4742;SDS011;24293;48.154;7.748;2023-05-29T09:28:48;11.20;;;4.43;;
4742;SDS011;24293;48.154;7.748;2023-05-29T09:31:15;8.20;;;4.80;;
4742;SDS011;24293;48.154;7.748;2023-05-29T09:33:46;12.80;;;4.70;;
4742;SDS011;24293;48.154;7.748;2023-05-29T09:36:19;11.77;;;4.73;;
4742;SDS011;24293;48.154;7.748;2023-05-29T09:38:46;11.13;;;5.17;;
4742;SDS011;24293;48.154;7.748;2023-05-29T09:41:12;7.63;;;4.87;;
4742;SDS011;24293;48.154;7.748;2023-05-29T09:43:39;8.47;;;4.93;;
4742;SDS011;24293;48.154;7.748;2023-05-29T09:46:07;12.50;;;4.60;;
4742;SDS011;24293;48.154;7.748;2023-05-29T09:48:34;9.60;;;4.90;;
4742;SDS011;24293;48.154;7.748;2023-05-29T09:51:01;7.80;;;5.10;;
4742;SDS011;24293;48.154;7.748;2023-05-29T09:53:28;10.53;;;4.93;;
4742;SDS011;24293;48.154;7.748;2023-05-29T09:55:56;7.50;;;4.20;;
4742;SDS011;24293;48.154;7.748;2023-05-29T09:58:24;8.03;;;4.40;;
4742;SDS011;24293;48.154;7.748;2023-05-29T10:00:51;7.50;;;4.30;;
4742;SDS011;24293;48.154;7.748;2023-05-29T10:03:19;11.87;;;4.70;;
4742;SDS011;24293;48.154;7.748;2023-05-29T10:05:47;7.07;;;4.47;;
4742;SDS011;24293;48.154;7.748;2023-05-29T10:08:14;13.60;;;5.10;;
4742;SDS011;24293;48.154;7.748;2023-05-29T10:10:41;8.07;;;4.20;;
4742;SDS011;24293;48.154;7.748;2023-05-29T10:13:09;8.03;;;4.60;;
4742;SDS011;24293;48.154;7.748;2023-05-29T10:15:37;9.80;;;4.63;;
4742;SDS011;24293;48.154;7.748;2023-05-29T10:18:05;8.93;;;4.40;;
4742;SDS011;24293;48.154;7.748;2023-05-29T10:20:36;10.93;;;4.40;;
4742;SDS011;24293;48.154;7.748;2023-05-29T10:23:03;8.57;;;4.87;;
4742;SDS011;24293;48.154;7.748;2023-05-29T10:25:30;9.97;;;5.30;;
4742;SDS011;24293;48.154;7.748;2023-05-29T10:27:57;9.03;;;4.60;;
4742;SDS011;24293;48.154;7.748;2023-05-29T10:30:27;7.20;;;4.50;;
4742;SDS011;24293;48.154;7.748;2023-05-29T10:33:00;9.47;;;4.83;;
4742;SDS011;24293;48.154;7.748;2023-05-29T10:35:31;9.73;;;4.73;;
4742;SDS011;24293;48.154;7.748;2023-05-29T10:38:00;8.77;;;5.20;;
4742;SDS011;24293;48.154;7.748;2023-05-29T10:40:28;13.13;;;4.57;;
4742;SDS011;24293;48.154;7.748;2023-05-29T10:42:55;7.30;;;4.57;;
4742;SDS011;24293;48.154;7.748;2023-05-29T10:50:54;8.30;;;4.17;;
4742;SDS011;24293;48.154;7.748;2023-05-29T10:53:24;13.00;;;4.73;;
4742;SDS011;24293;48.154;7.748;2023-05-29T10:55:51;7.03;;;4.23;;
4742;SDS011;24293;48.154;7.748;2023-05-29T10:58:19;7.80;;;4.00;;
4742;SDS011;24293;48.154;7.748;2023-05-29T11:00:46;8.67;;;5.20;;
4742;SDS011;24293;48.154;7.748;2023-05-29T11:03:14;8.73;;;4.90;;
4742;SDS011;24293;48.154;7.748;2023-05-29T11:05:55;8.07;;;4.73;;
4742;SDS011;24293;48.154;7.748;2023-05-29T11:08:29;10.53;;;5.10;;
4742;SDS011;24293;48.154;7.748;2023-05-29T11:10:58;8.33;;;4.40;;
4742;SDS011;24293;48.154;7.748;2023-05-29T11:13:25;8.70;;;4.90;;
4742;SDS011;24293;48.154;7.748;2023-05-29T11:16:11;10.10;;;5.20;;
4742;SDS011;24293;48.154;7.748;2023-05-29T11:18:38;8.10;;;4.20;;
4742;SDS011;24293;48.154;7.748;2023-05-29T11:21:05;8.27;;;4.57;;
4742;SDS011;24293;48.154;7.748;2023-05-29T11:23:36;11.30;;;5.20;;
4742;SDS011;24293;48.154;7.748;2023-05-29T11:26:06;9.10;;;4.83;;
4742;SDS011;24293;48.154;7.748;2023-05-29T11:28:33;8.43;;;4.67;;
4742;SDS011;24293;48.154;7.748;2023-05-29T11:30:59;8.47;;;5.30;;
4742;SDS011;24293;48.154;7.748;2023-05-29T11:33:29;7.97;;;4.63;;
4742;SDS011;24293;48.154;7.748;2023-05-29T11:35:58;11.47;;;5.53;;
4742;SDS011;24293;48.154;7.748;2023-05-29T11:38:24;10.23;;;4.70;;
4742;SDS011;24293;48.154;7.748;2023-05-29T11:40:53;10.03;;;5.03;;
4742;SDS011;24293;48.154;7.748;2023-05-29T11:43:19;9.00;;;4.87;;
4742;SDS011;24293;48.154;7.748;2023-05-29T11:45:46;10.93;;;4.67;;
4742;SDS011;24293;48.154;7.748;2023-05-29T11:48:13;9.17;;;5.03;;
4742;SDS011;24293;48.154;7.748;2023-05-29T11:50:39;7.33;;;4.27;;
4742;SDS011;24293;48.154;7.748;2023-05-29T11:53:06;8.80;;;4.30;;
4742;SDS011;24293;48.154;7.748;2023-05-29T11:55:32;7.50;;;4.53;;
4742;SDS011;24293;48.154;7.748;2023-05-29T11:58:01;8.87;;;4.80;;
4742;SDS011;24293;48.154;7.748;2023-05-29T12:00:30;9.63;;;4.78;;
4742;SDS011;24293;48.154;7.748;2023-05-29T12:02:57;10.37;;;4.03;;
4742;SDS011;24293;48.154;7.748;2023-05-29T12:05:23;10.17;;;4.40;;
4742;SDS011;24293;48.154;7.748;2023-05-29T12:07:50;8.33;;;4.40;;
4742;SDS011;24293;48.154;7.748;2023-05-29T12:10:18;11.03;;;5.10;;
4742;SDS011;24293;48.154;7.748;2023-05-29T12:12:48;9.47;;;4.23;;
4742;SDS011;24293;48.154;7.748;2023-05-29T12:15:16;11.70;;;5.07;;
4742;SDS011;24293;48.154;7.748;2023-05-29T12:17:43;8.73;;;4.57;;
4742;SDS011;24293;48.154;7.748;2023-05-29T12:20:10;9.53;;;4.53;;
4742;SDS011;24293;48.154;7.748;2023-05-29T12:22:37;10.17;;;4.60;;
4742;SDS011;24293;48.154;7.748;2023-05-29T12:25:07;6.93;;;4.57;;
4742;SDS011;24293;48.154;7.748;2023-05-29T12:27:36;7.10;;;4.10;;
4742;SDS011;24293;48.154;7.748;2023-05-29T12:30:07;10.47;;;4.63;;
4742;SDS011;24293;48.154;7.748;2023-05-29T12:32:36;8.10;;;4.90;;
4742;SDS011;24293;48.154;7.748;2023-05-29T12:35:09;7.30;;;4.73;;
4742;SDS011;24293;48.154;7.748;2023-05-29T12:37:36;11.93;;;5.20;;
4742;SDS011;24293;48.154;7.748;2023-05-29T12:40:17;8.20;;;4.50;;
4742;SDS011;24293;48.154;7.748;2023-05-29T12:42:43;6.90;;;4.47;;
4742;SDS011;24293;48.154;7.748;2023-05-29T12:45:10;6.40;;;4.03;;
4742;SDS011;24293;48.154;7.748;2023-05-29T12:47:38;9.40;;;5.03;;
4742;SDS011;24293;48.154;7.748;2023-05-29T12:50:20;6.60;;;4.43;;
4742;SDS011;24293;48.154;7.748;2023-05-29T12:52:52;9.17;;;4.40;;
4742;SDS011;24293;48.154;7.748;2023-05-29T12:55:19;8.50;;;4.93;;
4742;SDS011;24293;48.154;7.748;2023-05-29T12:57:45;7.93;;;4.50;;
4742;SDS011;24293;48.154;7.748;2023-05-29T13:00:12;8.50;;;4.20;;
4742;SDS011;24293;48.154;7.748;2023-05-29T13:02:40;9.97;;;4.97;;
4742;SDS011;24293;48.154;7.748;2023-05-29T13:05:06;6.90;;;4.00;;
4742;SDS011;24293;48.154;7.748;2023-05-29T13:07:33;9.40;;;4.23;;
4742;SDS011;24293;48.154;7.748;2023-05-29T13:10:00;9.17;;;5.10;;
4742;SDS011;24293;48.154;7.748;2023-05-29T13:12:26;10.07;;;4.57;;
4742;SDS011;24293;48.154;7.748;2023-05-29T13:14:53;7.77;;;4.90;;
4742;SDS011;24293;48.154;7.748;2023-05-29T13:17:21;6.00;;;3.70;;
4742;SDS011;24293;48.154;7.748;2023-05-29T13:19:49;10.00;;;4.50;;
4742;SDS011;24293;48.154;7.748;2023-05-29T13:22:15;7.90;;;4.23;;
4742;SDS011;24293;48.154;7.748;2023-05-29T13:24:41;7.73;;;4.97;;
4742;SDS011;24293;48.154;7.748;2023-05-29T13:27:08;12.00;;;4.53;;
4742;SDS011;24293;48.154;7.748;2023-05-29T13:29:34;9.10;;;4.80;;
4742;SDS011;24293;48.154;7.748;2023-05-29T13:32:01;10.00;;;4.13;;
4742;SDS011;24293;48.154;7.748;2023-05-29T13:34:27;8.87;;;4.10;;
4742;SDS011;24293;48.154;7.748;2023-05-29T13:36:56;12.50;;;5.70;;
4742;SDS011;24293;48.154;7.748;2023-05-29T13:39:22;9.67;;;5.13;;
4742;SDS011;24293;48.154;7.748;2023-05-29T13:41:49;6.63;;;4.50;;
4742;SDS011;24293;48.154;7.748;2023-05-29T13:44:16;8.60;;;4.10;;
4742;SDS011;24293;48.154;7.748;2023-05-29T13:46:42;7.43;;;4.50;;
4742;SDS011;24293;48.154;7.748;2023-05-29T13:49:09;9.00;;;4.37;;
4742;SDS011;24293;48.154;7.748;2023-05-29T13:51:36;9.10;;;4.93;;
4742;SDS011;24293;48.154;7.748;2023-05-29T13:54:04;12.37;;;5.00;;
4742;SDS011;24293;48.154;7.748;2023-05-29T13:56:30;8.40;;;4.57;;
4742;SDS011;24293;48.154;7.748;2023-05-29T13:58:57;7.60;;;3.77;;
4742;SDS011;24293;48.154;7.748;2023-05-29T14:01:24;15.33;;;4.33;;
4742;SDS011;24293;48.154;7.748;2023-05-29T14:03:51;10.50;;;5.20;;
4742;SDS011;24293;48.154;7.748;2023-05-29T14:06:17;16.03;;;4.63;;
4742;SDS011;24293;48.154;7.748;2023-05-29T14:08:44;9.20;;;4.70;;
4742;SDS011;24293;48.154;7.748;2023-05-29T14:11:11;9.53;;;4.90;;
4742;SDS011;24293;48.154;7.748;2023-05-29T14:13:38;7.40;;;4.13;;
4742;SDS011;24293;48.154;7.748;2023-05-29T14:16:04;7.63;;;4.63;;
4742;SDS011;24293;48.154;7.748;2023-05-29T14:18:31;11.00;;;5.43;;
4742;SDS011;24293;48.154;7.748;2023-05-29T14:21:00;8.97;;;4.07;;
4742;SDS011;24293;48.154;7.748;2023-05-29T14:23:26;10.97;;;4.33;;
4742;SDS011;24293;48.154;7.748;2023-05-29T14:25:53;7.43;;;4.63;;
4742;SDS011;24293;48.154;7.748;2023-05-29T14:28:21;10.80;;;4.20;;
4742;SDS011;24293;48.154;7.748;2023-05-29T14:30:47;9.93;;;5.03;;
4742;SDS011;24293;48.154;7.748;2023-05-29T14:33:14;9.17;;;4.70;;
4742;SDS011;24293;48.154;7.748;2023-05-29T14:35:40;6.50;;;4.40;;
4742;SDS011;24293;48.154;7.748;2023-05-29T14:38:07;11.00;;;4.97;;
4742;SDS011;24293;48.154;7.748;2023-05-29T14:40:33;8.43;;;5.10;;
4742;SDS011;24293;48.154;7.748;2023-05-29T14:43:00;9.90;;;5.23;;
4742;SDS011;24293;48.154;7.748;2023-05-29T14:45:28;8.27;;;4.40;;
4742;SDS011;24293;48.154;7.748;2023-05-29T14:47:55;10.93;;;4.33;;
4742;SDS011;24293;48.154;7.748;2023-05-29T14:50:21;8.50;;;4.73;;
4742;SDS011;24293;48.154;7.748;2023-05-29T14:52:48;9.87;;;4.67;;
4742;SDS011;24293;48.154;7.748;2023-05-29T14:55:15;9.33;;;4.73;;
4742;SDS011;24293;48.154;7.748;2023-05-29T14:57:41;7.40;;;3.60;;
4742;SDS011;24293;48.154;7.748;2023-05-29T15:00:08;6.80;;;4.30;;